Time;durP1;ratioP1;P1;durP2;ratioP2;P2;SDS_P1;SDS_P2;PMS_P1;PMS_P2;Temp;Humidity;BMP_temperature;BMP_pressure;BME280_temperature;BME280_humidity;BME280_pressure;Samples;Min_cycle;Max_cycle;Signal;HPM_P1;HPM_P2
2023/09/07 00:00:16;;;;;;;3.83;1.73;;;25.00;70.10;;;;;;4993245;28;20383;-85
2023/09/07 00:02:42;;;;;;;2.75;1.83;;;25.10;70.40;;;;;;5011178;28;20030;-87
2023/09/07 00:05:08;;;;;;;6.10;2.08;;;25.00;70.20;;;;;;5008199;28;20091;-87
2023/09/07 00:07:34;;;;;;;4.35;2.70;;;25.00;70.20;;;;;;5007397;28;20529;-87
2023/09/07 00:10:00;;;;;;;2.20;1.80;;;24.90;70.70;;;;;;4997112;28;20038;-86
2023/09/07 00:12:26;;;;;;;2.47;2.00;;;24.90;70.30;;;;;;5014638;28;20038;-87
2023/09/07 00:14:55;;;;;;;3.95;1.65;;;24.90;70.40;;;;;;4998767;28;20498;-87
2023/09/07 00:17:21;;;;;;;3.20;2.08;;;24.90;70.30;;;;;;4999931;28;20027;-88
2023/09/07 00:19:49;;;;;;;2.58;1.80;;;24.90;70.20;;;;;;4997990;28;20029;-87
2023/09/07 00:22:15;;;;;;;4.10;1.80;;;24.90;70.20;;;;;;4998459;28;20030;-87
2023/09/07 00:24:40;;;;;;;2.13;1.70;;;24.80;70.30;;;;;;4998136;28;20072;-89
2023/09/07 00:27:07;;;;;;;4.85;2.17;;;24.80;70.30;;;;;;4998081;28;20410;-84
2023/09/07 00:29:37;;;;;;;4.18;2.13;;;24.80;70.50;;;;;;4997847;28;20486;-82
2023/09/07 00:32:03;;;;;;;2.90;2.28;;;24.70;70.50;;;;;;4996951;28;20042;-81
2023/09/07 00:34:28;;;;;;;3.78;2.00;;;24.70;70.70;;;;;;5001871;28;20026;-80
2023/09/07 00:36:54;;;;;;;5.32;1.63;;;24.70;70.70;;;;;;5017475;28;20033;-79
2023/09/07 00:39:20;;;;;;;3.78;2.15;;;24.70;71.00;;;;;;5007703;28;20069;-80
2023/09/07 00:41:45;;;;;;;5.47;2.17;;;24.70;70.90;;;;;;5006057;28;20037;-80
2023/09/07 00:44:11;;;;;;;3.63;1.80;;;24.80;71.00;;;;;;5001575;28;20105;-82
2023/09/07 00:46:37;;;;;;;3.67;2.13;;;24.80;70.70;;;;;;4996138;28;20042;-83
2023/09/07 00:49:04;;;;;;;3.65;1.75;;;24.80;70.60;;;;;;5028076;28;20050;-84
2023/09/07 00:51:30;;;;;;;3.80;2.00;;;24.80;70.50;;;;;;5039449;28;20049;-81
2023/09/07 00:53:56;;;;;;;2.28;1.50;;;24.80;70.70;;;;;;5029744;28;20026;-79
2023/09/07 00:56:22;;;;;;;2.83;1.83;;;24.80;70.60;;;;;;5022948;28;20088;-79
2023/09/07 00:58:49;;;;;;;2.97;1.77;;;24.70;70.60;;;;;;5008062;28;20038;-80
2023/09/07 01:01:14;;;;;;;3.50;1.85;;;24.70;70.50;;;;;;5001918;28;20026;-79
2023/09/07 01:03:40;;;;;;;2.65;1.90;;;24.70;70.60;;;;;;4989593;28;20378;-81
2023/09/07 01:06:26;;;;;;;3.05;1.77;;;24.70;70.60;;;;;;4994722;28;20046;-82
2023/09/07 01:08:58;;;;;;;3.40;2.40;;;24.80;70.70;;;;;;4999074;28;20030;-80
2023/09/07 01:11:24;;;;;;;5.43;2.10;;;24.60;70.90;;;;;;4998775;28;20030;-82
2023/09/07 01:13:52;;;;;;;3.00;1.90;;;24.60;70.90;;;;;;4987410;28;20034;-82
2023/09/07 01:16:20;;;;;;;1.55;1.35;;;24.60;71.00;;;;;;4995713;28;20046;-82
2023/09/07 01:18:46;;;;;;;2.78;2.03;;;24.60;71.20;;;;;;4993410;28;20034;-82
2023/09/07 01:21:11;;;;;;;3.63;1.83;;;24.60;71.10;;;;;;4977388;28;20494;-82
2023/09/07 01:23:42;;;;;;;3.33;1.65;;;24.60;71.20;;;;;;5010892;28;20421;-84
2023/09/07 01:26:08;;;;;;;;;;;24.60;71.10;;;;;;5007781;28;20038;-83
2023/09/07 01:28:34;;;;;;;2.40;1.70;;;24.60;71.40;;;;;;4987974;28;19917;-83
2023/09/07 01:31:01;;;;;;;1.95;1.50;;;24.60;71.50;;;;;;4996946;28;20042;-84
2023/09/07 01:33:27;;;;;;;3.53;2.00;;;24.60;71.50;;;;;;4996936;28;20030;-84
2023/09/07 01:35:53;;;;;;;7.15;2.17;;;24.60;71.30;;;;;;4995417;28;20458;-84
2023/09/07 01:38:18;;;;;;;3.58;1.90;;;24.60;71.20;;;;;;4995639;28;20018;-84
2023/09/07 01:40:44;;;;;;;2.05;1.58;;;24.60;71.50;;;;;;5003894;28;20712;-83
2023/09/07 01:43:10;;;;;;;3.95;2.13;;;24.50;71.20;;;;;;4999146;28;20037;-84
2023/09/07 01:45:36;;;;;;;2.67;1.80;;;24.50;71.40;;;;;;4995865;28;20033;-83
2023/09/07 01:48:03;;;;;;;2.38;1.70;;;24.50;71.30;;;;;;4977884;28;20371;-83
2023/09/07 01:50:28;;;;;;;3.33;2.00;;;24.50;71.90;;;;;;4994732;28;20027;-82
2023/09/07 01:52:54;;;;;;;3.58;1.98;;;24.50;71.30;;;;;;4976031;28;20042;-82
2023/09/07 01:55:20;;;;;;;3.35;2.17;;;24.50;71.50;;;;;;4985419;28;20030;-82
2023/09/07 01:57:46;;;;;;;2.20;2.00;;;24.50;71.60;;;;;;4987064;28;20321;-82
2023/09/07 02:00:12;;;;;;;4.38;2.17;;;24.40;71.50;;;;;;4975468;28;20030;-81
2023/09/07 02:02:38;;;;;;;2.67;2.25;;;24.40;71.60;;;;;;5005549;28;20474;-81
2023/09/07 02:05:04;;;;;;;2.67;1.90;;;24.40;71.70;;;;;;4994926;28;20037;-81
2023/09/07 02:07:30;;;;;;;3.53;1.83;;;24.40;71.70;;;;;;4986137;28;20402;-81
2023/09/07 02:09:57;;;;;;;3.03;1.83;;;24.40;71.90;;;;;;4977500;28;20060;-81
2023/09/07 02:12:22;;;;;;;2.67;1.67;;;24.40;72.00;;;;;;4994494;28;20026;-82
2023/09/07 02:14:48;;;;;;;2.85;2.08;;;24.40;72.00;;;;;;5010117;28;20400;-83
2023/09/07 02:17:17;;;;;;;3.53;1.85;;;24.30;71.80;;;;;;4993693;28;20554;-83
2023/09/07 02:19:44;;;;;;;3.97;2.13;;;24.30;71.90;;;;;;4985311;28;20030;-83
2023/09/07 02:22:09;;;;;;;4.80;2.03;;;24.20;72.40;;;;;;5014415;28;20034;-83
2023/09/07 02:24:35;;;;;;;2.17;1.70;;;24.20;72.30;;;;;;5012185;28;20041;-83
2023/09/07 02:27:01;;;;;;;2.00;1.73;;;24.10;72.50;;;;;;4999369;28;20034;-82
2023/09/07 02:29:26;;;;;;;2.70;1.77;;;24.10;72.50;;;;;;5000922;28;20061;-82
2023/09/07 02:31:52;;;;;;;3.40;2.20;;;24.10;72.70;;;;;;4993420;28;20041;-82
2023/09/07 02:34:18;;;;;;;3.35;1.88;;;24.10;72.90;;;;;;4993907;28;20184;-82
2023/09/07 02:36:44;;;;;;;4.88;1.90;;;24.10;72.70;;;;;;4995911;28;20064;-82
2023/09/07 02:39:11;;;;;;;2.40;1.75;;;24.00;72.90;;;;;;4993807;28;20038;-82
2023/09/07 02:41:38;;;;;;;2.85;2.08;;;24.10;72.80;;;;;;4993011;28;20494;-82
2023/09/07 02:44:04;;;;;;;3.67;1.95;;;24.10;72.60;;;;;;4994230;28;20401;-82
2023/09/07 02:46:30;;;;;;;5.03;2.10;;;24.10;72.70;;;;;;4993608;28;20034;-82
2023/09/07 02:48:57;;;;;;;5.10;2.25;;;24.10;72.70;;;;;;4994984;28;20034;-82
2023/09/07 02:51:24;;;;;;;6.53;2.35;;;24.10;72.60;;;;;;4995853;28;20030;-82
2023/09/07 02:53:50;;;;;;;2.00;1.63;;;24.00;72.40;;;;;;4993706;28;20252;-82
2023/09/07 02:56:16;;;;;;;2.83;1.92;;;24.00;72.40;;;;;;5001470;28;20482;-81
2023/09/07 02:58:41;;;;;;;2.33;1.70;;;24.10;72.50;;;;;;5009284;28;20022;-81
2023/09/07 03:01:49;;;;;;;3.13;2.10;;;24.00;72.40;;;;;;4859244;23;20888;-89
2023/09/07 03:04:15;;;;;;;2.30;1.70;;;23.90;72.60;;;;;;4943076;23;20061;-78
2023/09/07 03:06:41;;;;;;;4.50;1.65;;;23.90;72.60;;;;;;5024193;28;20037;-86
2023/09/07 03:09:08;;;;;;;4.38;2.40;;;23.90;72.90;;;;;;5017408;28;20496;-87
2023/09/07 03:11:35;;;;;;;2.80;1.83;;;23.90;73.00;;;;;;4996721;28;20064;-89
2023/09/07 03:14:01;;;;;;;3.95;1.95;;;23.80;73.10;;;;;;5009217;28;20044;-89
2023/09/07 03:16:27;;;;;;;3.28;2.20;;;23.70;73.20;;;;;;5008032;28;20557;-88
2023/09/07 03:18:52;;;;;;;3.63;1.80;;;23.70;73.50;;;;;;5013766;28;20038;-89
2023/09/07 03:21:18;;;;;;;2.67;2.10;;;23.70;73.30;;;;;;5014097;28;20072;-87
2023/09/07 03:23:44;;;;;;;3.25;2.35;;;23.60;73.30;;;;;;4994993;28;20026;-82
2023/09/07 03:26:10;;;;;;;2.90;2.20;;;23.70;73.40;;;;;;5012376;28;20033;-82
2023/09/07 03:28:36;;;;;;;3.03;2.13;;;23.60;73.40;;;;;;4998430;28;20427;-82
2023/09/07 03:31:02;;;;;;;3.20;2.40;;;23.70;73.50;;;;;;4993944;28;20027;-83
2023/09/07 03:33:28;;;;;;;3.95;2.33;;;23.60;73.60;;;;;;5012104;28;20030;-82
2023/09/07 03:35:58;;;;;;;11.88;2.50;;;23.50;73.80;;;;;;5004099;28;20489;-83
2023/09/07 03:38:24;;;;;;;4.20;2.42;;;23.50;73.90;;;;;;4994697;28;20322;-82
2023/09/07 03:40:50;;;;;;;2.60;1.80;;;23.40;73.80;;;;;;4993407;28;20051;-83
2023/09/07 03:43:15;;;;;;;2.58;1.85;;;23.40;73.90;;;;;;5010205;28;20037;-82
2023/09/07 03:45:41;;;;;;;3.42;1.90;;;23.40;73.80;;;;;;4997405;28;20066;-84
2023/09/07 03:48:08;;;;;;;2.83;1.90;;;23.50;73.80;;;;;;5012689;28;20034;-80
2023/09/07 03:50:34;;;;;;;3.50;1.98;;;23.50;73.70;;;;;;5011901;28;20034;-82
2023/09/07 03:52:59;;;;;;;3.92;2.20;;;23.60;73.60;;;;;;5015093;28;20540;-83
2023/09/07 03:55:25;;;;;;;2.35;1.80;;;23.60;73.40;;;;;;5016414;28;20034;-82
2023/09/07 03:57:51;;;;;;;3.17;1.83;;;23.60;73.20;;;;;;5007474;28;20026;-83
2023/09/07 04:00:17;;;;;;;2.53;2.00;;;23.60;73.20;;;;;;5008094;28;20033;-83
2023/09/07 04:02:43;;;;;;;2.38;1.65;;;23.60;73.20;;;;;;5014823;28;20065;-83
2023/09/07 04:05:10;;;;;;;2.58;1.83;;;23.60;73.10;;;;;;5008782;28;20147;-84
2023/09/07 04:07:37;;;;;;;3.05;2.20;;;23.70;73.10;;;;;;5009835;28;20026;-84
2023/09/07 04:10:02;;;;;;;2.95;1.77;;;23.70;73.00;;;;;;4997527;28;20045;-82
2023/09/07 04:12:28;;;;;;;2.05;1.70;;;23.60;73.00;;;;;;5004212;28;20034;-81
2023/09/07 04:14:54;;;;;;;2.83;1.90;;;23.70;72.90;;;;;;5004770;28;20478;-80
2023/09/07 04:17:19;;;;;;;2.53;1.70;;;23.70;72.90;;;;;;5015214;28;20032;-79
2023/09/07 04:19:45;;;;;;;5.28;1.95;;;23.70;72.70;;;;;;5008277;28;20503;-81
2023/09/07 04:22:11;;;;;;;2.22;1.95;;;23.70;72.80;;;;;;5013795;28;20088;-81
2023/09/07 04:24:37;;;;;;;2.72;1.70;;;23.70;72.60;;;;;;5015010;28;20049;-81
2023/09/07 04:27:03;;;;;;;2.85;1.92;;;23.70;72.60;;;;;;4998159;28;20041;-80
2023/09/07 04:29:29;;;;;;;1.83;1.60;;;23.70;72.60;;;;;;5007511;28;20026;-83
2023/09/07 04:31:55;;;;;;;2.58;2.17;;;23.70;72.60;;;;;;4994090;28;20030;-82
2023/09/07 04:34:22;;;;;;;2.20;1.90;;;23.70;72.50;;;;;;5012758;28;20045;-81
2023/09/07 04:36:48;;;;;;;1.95;1.70;;;23.60;72.80;;;;;;5027404;28;20095;-81
2023/09/07 04:39:14;;;;;;;1.80;1.50;;;23.60;72.70;;;;;;5015618;28;20442;-81
2023/09/07 04:41:40;;;;;;;2.58;1.48;;;23.60;72.60;;;;;;5013896;28;20033;-79
2023/09/07 04:44:06;;;;;;;4.10;1.88;;;23.70;72.90;;;;;;5015181;28;20418;-82
2023/09/07 04:46:31;;;;;;;5.15;1.83;;;23.70;72.80;;;;;;5015145;28;20057;-81
2023/09/07 04:48:57;;;;;;;2.42;1.90;;;23.70;72.70;;;;;;5015243;28;20034;-80
2023/09/07 04:51:25;;;;;;;2.72;1.67;;;23.70;72.70;;;;;;5010113;28;20143;-79
2023/09/07 04:53:51;;;;;;;2.70;2.03;;;23.70;73.40;;;;;;5009515;28;20130;-80
2023/09/07 04:56:17;;;;;;;3.17;1.95;;;23.70;72.80;;;;;;5014757;28;20089;-80
2023/09/07 04:58:43;;;;;;;2.47;1.88;;;23.60;72.70;;;;;;5017047;28;20025;-81
2023/09/07 05:01:11;;;;;;;2.35;1.83;;;23.70;72.90;;;;;;5011054;28;20029;-90
2023/09/07 05:03:36;;;;;;;3.25;1.95;;;23.70;73.00;;;;;;5008547;28;20046;-89
2023/09/07 05:06:03;;;;;;;2.80;1.80;;;23.70;73.10;;;;;;5015255;28;20129;-90
2023/09/07 05:08:29;;;;;;;2.45;1.70;;;23.70;73.00;;;;;;5015173;28;20470;-90
2023/09/07 05:10:59;;;;;;;4.93;1.60;;;23.80;73.00;;;;;;5015041;28;20022;-90
2023/09/07 05:13:26;;;;;;;2.53;1.73;;;23.80;73.00;;;;;;5015356;28;20037;-88
2023/09/07 05:15:53;;;;;;;3.50;1.98;;;23.80;73.00;;;;;;5010673;28;20108;-81
2023/09/07 05:18:19;;;;;;;2.92;1.88;;;23.80;72.90;;;;;;5012734;28;20034;-80
2023/09/07 05:20:46;;;;;;;2.90;2.10;;;23.80;73.10;;;;;;5020270;28;20037;-80
2023/09/07 05:23:15;;;;;;;2.42;1.80;;;23.80;73.30;;;;;;4995888;28;20383;-83
2023/09/07 05:25:54;;;;;;;2.35;1.85;;;23.80;73.00;;;;;;5005762;28;20478;-85
2023/09/07 05:28:21;;;;;;;3.30;2.10;;;23.80;73.30;;;;;;5009639;28;20160;-81
2023/09/07 05:30:47;;;;;;;2.78;1.80;;;23.80;73.10;;;;;;5012412;28;20044;-80
2023/09/07 05:33:15;;;;;;;2.63;1.77;;;23.80;73.20;;;;;;5000336;28;20113;-82
2023/09/07 05:35:42;;;;;;;4.47;2.45;;;23.80;73.10;;;;;;5012501;28;20036;-83
2023/09/07 05:38:08;;;;;;;2.70;1.88;;;23.80;72.80;;;;;;5003879;28;20061;-83
2023/09/07 05:40:36;;;;;;;3.47;2.03;;;23.70;73.00;;;;;;4994946;28;20038;-83
2023/09/07 05:43:03;;;;;;;17.10;2.25;;;23.70;73.20;;;;;;5009380;28;20037;-83
2023/09/07 05:45:41;;;;;;;5.85;2.00;;;23.70;72.80;;;;;;5004991;28;20027;-83
2023/09/07 05:48:07;;;;;;;2.58;1.48;;;23.70;72.90;;;;;;5007278;28;20038;-80
2023/09/07 05:50:37;;;;;;;4.35;1.70;;;23.70;73.30;;;;;;5010241;28;20034;-81
2023/09/07 05:53:03;;;;;;;6.80;1.52;;;23.70;73.20;;;;;;5006176;28;20026;-81
2023/09/07 05:55:30;;;;;;;1.95;1.75;;;23.80;73.10;;;;;;5011313;28;20113;-81
2023/09/07 05:57:57;;;;;;;6.10;1.80;;;23.70;72.80;;;;;;4995449;28;20060;-81
2023/09/07 06:00:23;;;;;;;5.03;2.20;;;23.70;72.80;;;;;;5005268;28;20037;-82
2023/09/07 06:02:49;;;;;;;4.55;1.90;;;23.80;72.80;;;;;;5005601;28;20014;-82
2023/09/07 06:05:16;;;;;;;4.28;1.98;;;23.80;73.10;;;;;;5004446;28;20034;-87
2023/09/07 06:07:42;;;;;;;3.92;2.20;;;23.80;73.00;;;;;;5015699;28;20370;-86
2023/09/07 06:10:08;;;;;;;4.65;1.88;;;23.80;73.90;;;;;;5011903;28;20026;-88
2023/09/07 06:12:33;;;;;;;5.55;1.58;;;23.80;73.10;;;;;;5001756;28;20038;-87
2023/09/07 06:15:00;;;;;;;4.80;1.50;;;23.90;73.90;;;;;;5013703;28;20084;-89
2023/09/07 06:17:27;;;;;;;5.13;1.80;;;23.90;73.80;;;;;;5027922;28;20029;-89
2023/09/07 06:19:53;;;;;;;3.10;1.63;;;24.00;74.20;;;;;;5028509;28;20022;-89
2023/09/07 06:22:19;;;;;;;3.50;1.90;;;24.00;74.00;;;;;;5006335;28;20058;-89
2023/09/07 06:24:44;;;;;;;4.30;1.65;;;24.00;73.50;;;;;;4999870;28;20061;-90
2023/09/07 06:27:10;;;;;;;4.13;1.90;;;24.00;73.60;;;;;;5010864;28;20034;-89
2023/09/07 06:29:36;;;;;;;2.88;1.73;;;24.00;73.60;;;;;;5015905;28;20037;-90
2023/09/07 06:32:02;;;;;;;2.95;1.73;;;24.10;73.90;;;;;;5015020;28;20044;-90
2023/09/07 06:34:28;;;;;;;3.55;1.75;;;24.10;73.70;;;;;;5015898;28;20099;-87
2023/09/07 06:36:53;;;;;;;2.25;1.75;;;24.10;74.10;;;;;;5014482;28;20058;-87
2023/09/07 06:39:20;;;;;;;3.47;1.70;;;24.20;74.40;;;;;;5014967;28;20026;-89
2023/09/07 06:41:46;;;;;;;3.85;2.05;;;24.20;74.30;;;;;;4999186;28;20120;-88
2023/09/07 06:44:12;;;;;;;6.47;2.05;;;24.20;74.10;;;;;;5016412;28;20038;-88
2023/09/07 06:46:38;;;;;;;2.28;1.70;;;24.20;74.20;;;;;;5008485;28;20044;-88
2023/09/07 06:49:03;;;;;;;2.90;1.95;;;24.30;74.10;;;;;;5013989;28;20038;-80
2023/09/07 06:51:31;;;;;;;3.60;2.00;;;24.30;74.00;;;;;;5013783;28;20390;-81
2023/09/07 06:53:57;;;;;;;2.78;1.90;;;24.30;73.00;;;;;;5013701;28;20133;-81
2023/09/07 06:56:22;;;;;;;3.63;2.47;;;24.40;73.30;;;;;;5013569;28;20757;-80
2023/09/07 06:58:48;;;;;;;5.10;2.10;;;24.40;72.90;;;;;;5013632;28;20061;-80
2023/09/07 07:01:15;;;;;;;3.35;2.20;;;24.50;73.10;;;;;;5013763;28;20057;-81
2023/09/07 07:03:40;;;;;;;4.47;2.33;;;24.50;73.00;;;;;;5013205;28;20057;-80
2023/09/07 07:06:06;;;;;;;7.82;2.22;;;24.50;72.50;;;;;;5013530;28;20030;-80
2023/09/07 07:08:32;;;;;;;2.75;1.77;;;24.60;72.40;;;;;;5013645;28;20060;-80
2023/09/07 07:10:58;;;;;;;2.85;1.95;;;24.60;72.30;;;;;;5015561;28;20026;-80
2023/09/07 07:13:23;;;;;;;3.70;1.98;;;24.70;72.00;;;;;;5032679;28;20140;-81
2023/09/07 07:15:49;;;;;;;2.80;1.90;;;24.80;71.90;;;;;;5033466;28;20030;-81
2023/09/07 07:18:14;;;;;;;3.50;2.08;;;24.80;71.80;;;;;;5037317;28;20037;-78
2023/09/07 07:20:42;;;;;;;2.10;1.88;;;24.90;71.80;;;;;;5037345;28;20690;-80
2023/09/07 07:23:07;;;;;;;2.20;1.77;;;25.00;72.00;;;;;;5037287;28;20033;-80
2023/09/07 07:25:34;;;;;;;3.13;1.92;;;25.00;71.20;;;;;;5037527;28;20553;-81
2023/09/07 07:28:07;;;;;;;5.80;2.10;;;25.10;71.00;;;;;;5037003;28;20037;-80
2023/09/07 07:30:40;;;;;;;2.95;1.90;;;25.20;70.90;;;;;;5018936;28;20354;-81
2023/09/07 07:33:06;;;;;;;4.40;1.92;;;25.20;70.60;;;;;;5037083;28;20034;-80
2023/09/07 07:35:34;;;;;;;3.63;1.92;;;25.30;70.20;;;;;;5037007;28;20060;-81
2023/09/07 07:38:00;;;;;;;2.28;1.60;;;25.40;70.30;;;;;;5037242;28;20040;-80
2023/09/07 07:40:26;;;;;;;2.35;1.60;;;25.40;70.10;;;;;;5036470;28;20021;-80
2023/09/07 07:42:53;;;;;;;6.75;1.65;;;25.50;69.20;;;;;;5000379;28;20076;-80
2023/09/07 07:45:19;;;;;;;2.33;1.60;;;25.60;69.50;;;;;;4999421;28;20033;-81
2023/09/07 07:47:46;;;;;;;1.67;1.30;;;25.70;69.60;;;;;;5016904;28;20080;-81
2023/09/07 07:50:12;;;;;;;3.05;1.80;;;25.80;69.20;;;;;;5016795;28;20421;-80
2023/09/07 07:52:37;;;;;;;1.92;1.67;;;25.80;69.10;;;;;;5016767;28;20491;-81
2023/09/07 07:55:03;;;;;;;2.35;1.77;;;25.90;69.50;;;;;;4999148;28;20057;-80
2023/09/07 07:57:29;;;;;;;4.20;2.20;;;26.00;69.50;;;;;;5016768;28;20026;-81
2023/09/07 07:59:56;;;;;;;3.65;2.20;;;26.00;68.50;;;;;;5016970;28;20038;-79
2023/09/07 08:02:22;;;;;;;1.70;1.50;;;26.10;68.80;;;;;;5016853;28;20026;-79
2023/09/07 08:04:47;;;;;;;4.25;2.53;;;26.10;68.60;;;;;;5008509;28;20121;-80
2023/09/07 08:07:13;;;;;;;2.78;1.95;;;26.20;68.70;;;;;;5010947;28;20091;-81
2023/09/07 08:09:39;;;;;;;4.78;2.20;;;26.30;69.00;;;;;;5014337;28;20031;-80
2023/09/07 08:12:06;;;;;;;2.80;1.90;;;26.40;68.70;;;;;;5014111;28;20387;-79
2023/09/07 08:14:32;;;;;;;6.47;1.90;;;26.50;68.80;;;;;;5011240;28;20065;-80
2023/09/07 08:16:58;;;;;;;2.78;1.98;;;26.60;68.90;;;;;;4996390;28;20112;-80
2023/09/07 08:19:24;;;;;;;2.20;1.50;;;26.70;68.60;;;;;;4998238;28;20101;-88
2023/09/07 08:21:50;;;;;;;2.75;1.65;;;26.80;68.50;;;;;;4997490;28;20075;-88
2023/09/07 08:24:16;;;;;;;3.45;2.10;;;26.90;68.10;;;;;;5017571;28;20022;-89
2023/09/07 08:26:42;;;;;;;2.50;2.00;;;27.00;68.20;;;;;;5016017;28;20029;-90
2023/09/07 08:29:09;;;;;;;3.65;2.00;;;27.10;66.90;;;;;;5017535;28;20037;-89
2023/09/07 08:31:38;;;;;;;3.65;1.73;;;27.20;66.50;;;;;;5005648;28;20038;-89
2023/09/07 08:34:11;;;;;;;6.65;1.92;;;27.20;67.00;;;;;;5000560;28;20102;-81
2023/09/07 08:36:37;;;;;;;2.75;1.88;;;27.30;66.30;;;;;;5014059;28;20026;-81
2023/09/07 08:39:09;;;;;;;2.72;1.63;;;27.30;66.60;;;;;;5015721;28;20050;-79
2023/09/07 08:41:41;;;;;;;4.47;2.33;;;27.50;66.50;;;;;;5015546;28;20370;-79
2023/09/07 08:44:09;;;;;;;5.15;1.95;;;27.60;66.00;;;;;;5015639;28;20466;-79
2023/09/07 08:46:36;;;;;;;3.17;1.75;;;27.60;63.70;;;;;;5015519;28;20044;-79
2023/09/07 08:49:03;;;;;;;4.90;1.45;;;27.60;65.40;;;;;;5009806;28;20434;-78
2023/09/07 08:51:31;;;;;;;2.75;1.50;;;27.70;65.20;;;;;;5013904;28;20065;-79
2023/09/07 08:53:57;;;;;;;4.00;1.70;;;27.90;65.70;;;;;;5015581;28;20142;-79
2023/09/07 08:56:23;;;;;;;3.00;1.92;;;27.90;64.80;;;;;;5015252;28;20021;-78
2023/09/07 08:58:49;;;;;;;3.08;1.48;;;28.00;64.40;;;;;;5016010;28;20041;-80
2023/09/07 09:01:15;;;;;;;4.18;1.75;;;28.10;64.20;;;;;;5015550;28;20014;-80
2023/09/07 09:03:43;;;;;;;3.55;1.70;;;28.20;64.00;;;;;;5015708;28;20121;-81
2023/09/07 09:06:09;;;;;;;3.78;2.30;;;28.20;63.10;;;;;;5015253;28;20026;-80
2023/09/07 09:09:07;;;;;;;2.63;1.80;;;28.30;62.40;;;;;;4997753;28;20036;-80
2023/09/07 09:11:32;;;;;;;2.67;1.95;;;28.40;62.00;;;;;;4992514;28;20042;-81
2023/09/07 09:13:58;;;;;;;5.45;1.90;;;28.40;61.80;;;;;;5002058;28;20022;-81
2023/09/07 09:16:25;;;;;;;1.70;1.50;;;28.40;62.40;;;;;;5014615;28;20038;-81
2023/09/07 09:18:57;;;;;;;2.47;1.85;;;28.50;63.20;;;;;;5015545;28;20489;-81
2023/09/07 09:21:25;;;;;;;5.03;2.45;;;28.60;62.70;;;;;;5015300;28;20030;-81
2023/09/07 09:23:56;;;;;;;3.80;1.70;;;28.80;60.40;;;;;;5015288;28;20026;-81
2023/09/07 09:26:23;;;;;;;3.75;2.20;;;28.80;60.80;;;;;;5015263;28;20450;-81
2023/09/07 09:28:52;;;;;;;4.28;1.90;;;28.90;61.50;;;;;;5015221;28;20033;-81
2023/09/07 09:31:18;;;;;;;3.85;1.98;;;29.10;61.10;;;;;;5014800;28;20092;-81
2023/09/07 09:33:52;;;;;;;4.90;1.75;;;29.20;60.70;;;;;;5014930;28;20022;-81
2023/09/07 09:36:18;;;;;;;2.20;1.80;;;29.30;59.50;;;;;;5014697;28;20524;-79
2023/09/07 09:38:49;;;;;;;5.18;1.52;;;29.40;59.50;;;;;;5014966;28;20018;-80
2023/09/07 09:41:17;;;;;;;5.15;1.58;;;29.50;58.60;;;;;;5013567;28;20545;-81
2023/09/07 09:43:44;;;;;;;2.72;1.95;;;29.60;58.80;;;;;;5015007;28;20030;-81
2023/09/07 09:46:10;;;;;;;2.83;1.67;;;29.70;56.80;;;;;;5014929;28;20036;-81
2023/09/07 09:48:37;;;;;;;3.83;1.67;;;29.80;57.50;;;;;;5014658;28;20034;-80
2023/09/07 09:51:04;;;;;;;2.95;1.60;;;29.90;57.90;;;;;;5014830;28;20040;-79
2023/09/07 09:53:30;;;;;;;3.70;1.50;;;29.90;57.50;;;;;;5014877;28;20029;-82
2023/09/07 09:55:56;;;;;;;1.70;1.55;;;30.00;57.60;;;;;;5015140;28;20074;-79
2023/09/07 09:58:22;;;;;;;3.35;1.90;;;30.10;57.60;;;;;;5015158;28;20022;-80
2023/09/07 10:00:50;;;;;;;2.60;1.85;;;30.20;57.20;;;;;;5014452;28;20033;-79
2023/09/07 10:03:31;;;;;;;3.70;2.42;;;30.30;57.00;;;;;;5014387;28;20116;-80
2023/09/07 10:06:10;;;;;;;2.17;1.58;;;30.40;57.00;;;;;;5014536;28;20108;-80
2023/09/07 10:08:36;;;;;;;5.65;2.20;;;30.50;56.70;;;;;;5014443;28;20080;-79
2023/09/07 10:11:09;;;;;;;3.42;1.80;;;30.60;56.40;;;;;;5014273;28;20462;-80
2023/09/07 10:13:35;;;;;;;4.10;1.80;;;30.70;56.30;;;;;;5014388;28;20486;-79
2023/09/07 10:16:07;;;;;;;3.72;1.83;;;30.70;55.60;;;;;;5014357;28;20049;-81
2023/09/07 10:18:37;;;;;;;5.35;2.05;;;30.80;56.20;;;;;;5014329;28;20030;-80
2023/09/07 10:21:03;;;;;;;3.33;1.83;;;30.80;54.80;;;;;;4996591;28;20026;-80
2023/09/07 10:23:43;;;;;;;1.80;1.50;;;30.90;55.50;;;;;;5017321;28;20709;-81
2023/09/07 10:26:16;;;;;;;3.10;1.73;;;31.10;55.90;;;;;;5033856;28;20036;-79
2023/09/07 10:28:45;;;;;;;1.70;1.52;;;31.30;56.30;;;;;;5034028;28;20037;-81
2023/09/07 10:31:17;;;;;;;4.25;2.20;;;31.50;55.90;;;;;;5016184;28;20022;-79
2023/09/07 10:33:42;;;;;;;4.30;2.03;;;31.60;55.20;;;;;;5033948;28;20053;-80
2023/09/07 10:36:19;;;;;;;2.35;1.60;;;31.70;55.30;;;;;;5033487;28;20103;-80
2023/09/07 10:38:45;;;;;;;1.95;1.58;;;31.80;55.50;;;;;;5033651;28;20573;-80
2023/09/07 10:41:11;;;;;;;4.90;2.28;;;32.00;55.10;;;;;;5033806;28;20045;-80
2023/09/07 10:43:50;;;;;;;3.35;1.58;;;32.00;54.60;;;;;;5033848;28;20087;-80
2023/09/07 10:46:21;;;;;;;2.38;1.80;;;32.20;54.60;;;;;;5033667;28;20070;-79
2023/09/07 10:48:52;;;;;;;4.30;1.50;;;32.30;55.00;;;;;;5033429;28;20097;-80
2023/09/07 10:51:19;;;;;;;3.97;1.92;;;32.50;54.20;;;;;;5033289;28;20033;-80
2023/09/07 10:53:45;;;;;;;2.63;1.58;;;32.50;54.30;;;;;;5032633;28;20021;-80
2023/09/07 10:56:11;;;;;;;2.92;2.00;;;32.70;53.60;;;;;;5033243;28;20044;-80
2023/09/07 10:58:42;;;;;;;6.78;2.33;;;32.80;51.60;;;;;;5033714;28;20021;-80
2023/09/07 11:01:11;;;;;;;3.15;1.95;;;32.80;51.70;;;;;;5033478;28;20075;-80
2023/09/07 11:03:37;;;;;;;2.90;2.22;;;32.80;51.50;;;;;;5033241;28;20544;-80
2023/09/07 11:06:13;;;;;;;2.00;1.83;;;32.90;50.90;;;;;;5033457;28;20021;-80
2023/09/07 11:08:38;;;;;;;4.55;2.13;;;32.90;50.80;;;;;;5033532;28;20029;-79
2023/09/07 11:11:05;;;;;;;3.28;1.58;;;33.10;51.00;;;;;;5033290;28;20025;-79
2023/09/07 11:13:31;;;;;;;2.83;1.80;;;33.20;51.10;;;;;;5033502;28;20068;-79
2023/09/07 11:15:58;;;;;;;2.28;1.55;;;33.30;51.20;;;;;;5033770;28;20045;-80
2023/09/07 11:18:25;;;;;;;3.30;2.00;;;33.50;50.80;;;;;;5033193;28;20145;-78
2023/09/07 11:20:52;;;;;;;2.47;1.40;;;33.60;49.70;;;;;;5033447;28;20025;-79
2023/09/07 11:23:19;;;;;;;3.20;1.55;;;33.70;49.40;;;;;;5014929;28;20026;-79
2023/09/07 11:25:47;;;;;;;2.75;1.73;;;33.70;50.50;;;;;;5032816;28;20033;-81
2023/09/07 11:28:15;;;;;;;2.45;1.60;;;33.90;50.20;;;;;;5033336;28;20029;-80
2023/09/07 11:30:51;;;;;;;2.20;2.00;;;34.20;50.40;;;;;;5033035;28;20029;-80
2023/09/07 11:33:17;;;;;;;2.17;1.50;;;34.40;49.70;;;;;;5033203;28;20034;-79
2023/09/07 11:35:43;;;;;;;2.45;1.83;;;34.60;49.60;;;;;;5033244;28;20484;-79
2023/09/07 11:38:12;;;;;;;2.28;1.83;;;34.80;49.20;;;;;;5033367;28;20422;-80
2023/09/07 11:40:38;;;;;;;4.22;1.77;;;35.10;49.30;;;;;;5033518;28;20517;-79
2023/09/07 11:43:03;;;;;;;5.13;2.10;;;35.30;48.10;;;;;;5033170;28;20157;-80
2023/09/07 11:45:29;;;;;;;1.95;1.77;;;35.50;48.00;;;;;;5032941;28;20041;-79
2023/09/07 11:47:55;;;;;;;3.70;1.77;;;35.60;47.80;;;;;;5033026;28;20470;-79
2023/09/07 11:50:24;;;;;;;1.88;1.50;;;35.80;47.60;;;;;;5032934;28;20470;-80
2023/09/07 11:52:50;;;;;;;1.95;1.63;;;35.90;47.40;;;;;;5032625;28;20040;-80
2023/09/07 11:55:16;;;;;;;2.53;1.92;;;36.10;47.30;;;;;;5013241;28;20018;-80
2023/09/07 11:57:42;;;;;;;2.05;1.77;;;36.10;46.10;;;;;;5013122;28;20026;-80
2023/09/07 12:00:10;;;;;;;2.88;1.73;;;36.30;46.70;;;;;;5013515;28;20021;-80
2023/09/07 12:02:37;;;;;;;1.70;1.60;;;36.50;46.40;;;;;;5013215;28;20105;-80
2023/09/07 12:05:03;;;;;;;2.25;1.88;;;36.50;46.10;;;;;;5016797;28;20050;-80
2023/09/07 12:07:30;;;;;;;3.47;2.13;;;36.70;45.80;;;;;;5017006;28;20084;-80
2023/09/07 12:09:57;;;;;;;2.03;1.83;;;36.80;43.90;;;;;;5016522;28;20030;-80
2023/09/07 12:12:23;;;;;;;2.28;1.70;;;36.80;45.30;;;;;;5016226;28;20134;-81
2023/09/07 12:14:49;;;;;;;3.92;2.10;;;36.80;45.40;;;;;;5016675;28;20026;-80
2023/09/07 12:17:15;;;;;;;2.17;1.70;;;36.80;44.90;;;;;;5012960;28;20072;-80
2023/09/07 12:19:42;;;;;;;2.33;1.70;;;36.90;46.20;;;;;;4989642;28;20030;-89
2023/09/07 12:22:08;;;;;;;3.15;1.52;;;37.00;45.30;;;;;;5018831;28;20508;-89
2023/09/07 12:24:34;;;;;;;3.40;1.88;;;37.20;44.50;;;;;;5015359;28;20033;-89
2023/09/07 12:26:59;;;;;;;2.92;2.00;;;37.30;45.00;;;;;;5017410;28;20044;-89
2023/09/07 12:29:25;;;;;;;2.28;1.48;;;37.30;44.30;;;;;;5016376;28;20036;-89
2023/09/07 12:31:51;;;;;;;1.95;1.75;;;37.40;44.40;;;;;;4999964;28;20362;-89
2023/09/07 12:34:17;;;;;;;3.15;1.85;;;37.50;44.40;;;;;;5002940;28;20033;-89
2023/09/07 12:36:42;;;;;;;3.20;1.88;;;37.40;43.90;;;;;;4999803;28;20109;-89
2023/09/07 12:39:08;;;;;;;3.90;2.03;;;37.50;43.90;;;;;;5018339;28;20026;-89
2023/09/07 12:41:34;;;;;;;3.67;1.98;;;37.40;44.30;;;;;;5018403;28;20033;-88
2023/09/07 12:43:59;;;;;;;2.22;1.52;;;37.40;44.00;;;;;;5021087;28;20028;-87
2023/09/07 12:46:25;;;;;;;4.68;2.13;;;37.50;44.00;;;;;;5017881;28;20072;-90